sensor_id;sensor_type;location;lat;lon;timestamp;temperature;humidity
60473;DHT22;46318;52.716;6.444;2023-12-07T00:00:09;0.80;100.00
60473;DHT22;46318;52.716;6.444;2023-12-07T00:02:36;0.80;100.00
60473;DHT22;46318;52.716;6.444;2023-12-07T00:05:04;0.80;100.00
60473;DHT22;46318;52.716;6.444;2023-12-07T00:07:33;0.80;100.00
60473;DHT22;46318;52.716;6.444;2023-12-07T00:09:59;0.80;100.00
60473;DHT22;46318;52.716;6.444;2023-12-07T00:12:25;0.80;100.00
60473;DHT22;46318;52.716;6.444;2023-12-07T00:14:51;0.70;100.00
60473;DHT22;46318;52.716;6.444;2023-12-07T00:17:17;0.70;100.00
60473;DHT22;46318;52.716;6.444;2023-12-07T00:19:43;0.70;100.00
60473;DHT22;46318;52.716;6.444;2023-12-07T00:22:09;0.70;100.00
60473;DHT22;46318;52.716;6.444;2023-12-07T00:24:35;0.60;100.00
60473;DHT22;46318;52.716;6.444;2023-12-07T00:27:04;0.60;100.00
60473;DHT22;46318;52.716;6.444;2023-12-07T00:29:30;0.60;100.00
60473;DHT22;46318;52.716;6.444;2023-12-07T00:31:57;0.60;100.00
60473;DHT22;46318;52.716;6.444;2023-12-07T00:34:22;0.50;100.00
60473;DHT22;46318;52.716;6.444;2023-12-07T00:36:48;0.50;100.00
60473;DHT22;46318;52.716;6.444;2023-12-07T00:39:14;0.50;100.00
60473;DHT22;46318;52.716;6.444;2023-12-07T00:41:40;0.40;100.00
60473;DHT22;46318;52.716;6.444;2023-12-07T00:44:06;0.40;100.00
60473;DHT22;46318;52.716;6.444;2023-12-07T00:46:32;0.40;100.00
60473;DHT22;46318;52.716;6.444;2023-12-07T00:48:58;0.40;100.00
60473;DHT22;46318;52.716;6.444;2023-12-07T00:51:24;0.40;100.00
60473;DHT22;46318;52.716;6.444;2023-12-07T00:53:50;0.30;100.00
60473;DHT22;46318;52.716;6.444;2023-12-07T00:56:16;0.30;100.00
60473;DHT22;46318;52.716;6.444;2023-12-07T00:58:42;0.30;100.00
60473;DHT22;46318;52.716;6.444;2023-12-07T01:01:08;0.30;100.00
60473;DHT22;46318;52.716;6.444;2023-12-07T01:03:34;0.30;100.00
60473;DHT22;46318;52.716;6.444;2023-12-07T01:06:00;0.30;100.00
60473;DHT22;46318;52.716;6.444;2023-12-07T01:08:26;0.30;100.00
60473;DHT22;46318;52.716;6.444;2023-12-07T01:10:52;0.20;100.00
60473;DHT22;46318;52.716;6.444;2023-12-07T01:13:18;0.20;100.00
60473;DHT22;46318;52.716;6.444;2023-12-07T01:15:44;0.20;100.00
60473;DHT22;46318;52.716;6.444;2023-12-07T01:18:10;0.20;100.00
60473;DHT22;46318;52.716;6.444;2023-12-07T01:20:35;0.10;100.00
60473;DHT22;46318;52.716;6.444;2023-12-07T01:23:01;0.10;100.00
60473;DHT22;46318;52.716;6.444;2023-12-07T01:25:28;0.00;100.00
60473;DHT22;46318;52.716;6.444;2023-12-07T01:27:54;0.00;100.00
60473;DHT22;46318;52.716;6.444;2023-12-07T01:30:22;0.00;100.00
60473;DHT22;46318;52.716;6.444;2023-12-07T01:32:48;0.00;100.00
60473;DHT22;46318;52.716;6.444;2023-12-07T01:35:14;0.00;100.00
60473;DHT22;46318;52.716;6.444;2023-12-07T01:37:40;0.00;100.00
60473;DHT22;46318;52.716;6.444;2023-12-07T01:40:06;0.00;100.00
60473;DHT22;46318;52.716;6.444;2023-12-07T01:42:39;0.00;100.00
60473;DHT22;46318;52.716;6.444;2023-12-07T01:45:05;0.00;100.00
60473;DHT22;46318;52.716;6.444;2023-12-07T01:47:32;0.00;100.00
60473;DHT22;46318;52.716;6.444;2023-12-07T01:49:59;0.00;100.00
60473;DHT22;46318;52.716;6.444;2023-12-07T01:52:27;0.00;100.00
60473;DHT22;46318;52.716;6.444;2023-12-07T01:54:54;0.00;100.00
60473;DHT22;46318;52.716;6.444;2023-12-07T01:57:20;0.00;100.00
60473;DHT22;46318;52.716;6.444;2023-12-07T01:59:46;0.00;100.00
60473;DHT22;46318;52.716;6.444;2023-12-07T02:02:14;0.00;100.00
60473;DHT22;46318;52.716;6.444;2023-12-07T02:04:40;0.00;100.00
60473;DHT22;46318;52.716;6.444;2023-12-07T02:07:06;0.00;100.00
60473;DHT22;46318;52.716;6.444;2023-12-07T02:09:32;-0.10;100.00
60473;DHT22;46318;52.716;6.444;2023-12-07T02:11:58;-0.10;100.00
60473;DHT22;46318;52.716;6.444;2023-12-07T02:14:24;-0.10;100.00
60473;DHT22;46318;52.716;6.444;2023-12-07T02:17:33;-0.10;100.00
60473;DHT22;46318;52.716;6.444;2023-12-07T02:22:53;-0.10;100.00
60473;DHT22;46318;52.716;6.444;2023-12-07T02:25:29;-0.20;100.00
60473;DHT22;46318;52.716;6.444;2023-12-07T02:27:58;-0.20;100.00
60473;DHT22;46318;52.716;6.444;2023-12-07T02:30:23;-0.20;100.00
60473;DHT22;46318;52.716;6.444;2023-12-07T02:32:49;-0.20;100.00
60473;DHT22;46318;52.716;6.444;2023-12-07T02:35:15;-0.20;100.00
60473;DHT22;46318;52.716;6.444;2023-12-07T02:37:44;-0.20;100.00
60473;DHT22;46318;52.716;6.444;2023-12-07T02:40:18;-0.20;100.00
60473;DHT22;46318;52.716;6.444;2023-12-07T02:42:48;-0.20;100.00
60473;DHT22;46318;52.716;6.444;2023-12-07T02:45:15;-0.20;100.00
60473;DHT22;46318;52.716;6.444;2023-12-07T02:47:41;-0.20;100.00
60473;DHT22;46318;52.716;6.444;2023-12-07T02:50:09;-0.20;100.00
60473;DHT22;46318;52.716;6.444;2023-12-07T02:52:37;-0.30;100.00
60473;DHT22;46318;52.716;6.444;2023-12-07T02:55:04;-0.30;100.00
60473;DHT22;46318;52.716;6.444;2023-12-07T02:57:30;-0.30;100.00
60473;DHT22;46318;52.716;6.444;2023-12-07T02:59:59;-0.30;100.00
60473;DHT22;46318;52.716;6.444;2023-12-07T03:02:25;-0.30;100.00
60473;DHT22;46318;52.716;6.444;2023-12-07T03:04:51;-0.30;100.00
60473;DHT22;46318;52.716;6.444;2023-12-07T03:07:17;-0.30;100.00
60473;DHT22;46318;52.716;6.444;2023-12-07T03:09:43;-0.30;100.00
60473;DHT22;46318;52.716;6.444;2023-12-07T03:12:09;-0.30;100.00
60473;DHT22;46318;52.716;6.444;2023-12-07T03:14:35;-0.30;100.00
60473;DHT22;46318;52.716;6.444;2023-12-07T03:17:01;-0.30;100.00
60473;DHT22;46318;52.716;6.444;2023-12-07T03:19:27;-0.30;100.00
60473;DHT22;46318;52.716;6.444;2023-12-07T03:21:53;-0.30;100.00
60473;DHT22;46318;52.716;6.444;2023-12-07T03:24:18;-0.30;100.00
60473;DHT22;46318;52.716;6.444;2023-12-07T03:26:45;-0.30;100.00
60473;DHT22;46318;52.716;6.444;2023-12-07T03:29:10;-0.30;100.00
60473;DHT22;46318;52.716;6.444;2023-12-07T03:31:36;-0.40;100.00
60473;DHT22;46318;52.716;6.444;2023-12-07T03:34:02;-0.40;100.00
60473;DHT22;46318;52.716;6.444;2023-12-07T03:36:29;-0.40;100.00
60473;DHT22;46318;52.716;6.444;2023-12-07T03:38:54;-0.40;100.00
60473;DHT22;46318;52.716;6.444;2023-12-07T03:41:20;-0.40;100.00
60473;DHT22;46318;52.716;6.444;2023-12-07T03:43:46;-0.50;100.00
60473;DHT22;46318;52.716;6.444;2023-12-07T03:46:12;-0.40;100.00
60473;DHT22;46318;52.716;6.444;2023-12-07T03:48:38;-0.40;100.00
60473;DHT22;46318;52.716;6.444;2023-12-07T03:51:04;-0.50;100.00
60473;DHT22;46318;52.716;6.444;2023-12-07T03:53:31;-0.50;100.00
60473;DHT22;46318;52.716;6.444;2023-12-07T03:55:57;-0.50;100.00
60473;DHT22;46318;52.716;6.444;2023-12-07T03:58:23;-0.50;100.00
60473;DHT22;46318;52.716;6.444;2023-12-07T04:00:49;-0.50;100.00
60473;DHT22;46318;52.716;6.444;2023-12-07T04:03:14;-0.50;100.00
60473;DHT22;46318;52.716;6.444;2023-12-07T04:05:40;-0.50;100.00
60473;DHT22;46318;52.716;6.444;2023-12-07T04:08:06;-0.50;100.00
60473;DHT22;46318;52.716;6.444;2023-12-07T04:10:32;-0.40;100.00
60473;DHT22;46318;52.716;6.444;2023-12-07T04:12:58;-0.40;100.00
60473;DHT22;46318;52.716;6.444;2023-12-07T04:15:24;-0.50;100.00
60473;DHT22;46318;52.716;6.444;2023-12-07T04:17:50;-0.40;100.00
60473;DHT22;46318;52.716;6.444;2023-12-07T04:20:18;-0.40;100.00
60473;DHT22;46318;52.716;6.444;2023-12-07T04:22:44;-0.40;100.00
60473;DHT22;46318;52.716;6.444;2023-12-07T04:25:11;-0.40;100.00
60473;DHT22;46318;52.716;6.444;2023-12-07T04:27:37;-0.40;100.00
60473;DHT22;46318;52.716;6.444;2023-12-07T04:30:03;-0.40;100.00
60473;DHT22;46318;52.716;6.444;2023-12-07T04:32:29;-0.40;100.00
60473;DHT22;46318;52.716;6.444;2023-12-07T04:34:55;-0.30;100.00
60473;DHT22;46318;52.716;6.444;2023-12-07T04:37:22;-0.30;100.00
60473;DHT22;46318;52.716;6.444;2023-12-07T04:39:47;-0.30;100.00
60473;DHT22;46318;52.716;6.444;2023-12-07T04:42:13;-0.30;100.00
60473;DHT22;46318;52.716;6.444;2023-12-07T04:44:39;-0.30;100.00
60473;DHT22;46318;52.716;6.444;2023-12-07T04:47:05;-0.30;100.00
60473;DHT22;46318;52.716;6.444;2023-12-07T04:49:31;-0.30;100.00
60473;DHT22;46318;52.716;6.444;2023-12-07T04:51:57;-0.30;100.00
60473;DHT22;46318;52.716;6.444;2023-12-07T04:54:23;-0.30;100.00
60473;DHT22;46318;52.716;6.444;2023-12-07T04:56:49;-0.30;100.00
60473;DHT22;46318;52.716;6.444;2023-12-07T04:59:14;-0.30;100.00
60473;DHT22;46318;52.716;6.444;2023-12-07T05:01:40;-0.20;100.00
60473;DHT22;46318;52.716;6.444;2023-12-07T05:04:06;-0.20;100.00
60473;DHT22;46318;52.716;6.444;2023-12-07T05:06:32;-0.20;100.00
60473;DHT22;46318;52.716;6.444;2023-12-07T05:08:59;-0.20;100.00
60473;DHT22;46318;52.716;6.444;2023-12-07T05:11:26;-0.20;100.00
60473;DHT22;46318;52.716;6.444;2023-12-07T05:13:52;-0.20;100.00
60473;DHT22;46318;52.716;6.444;2023-12-07T05:16:18;-0.20;100.00
60473;DHT22;46318;52.716;6.444;2023-12-07T05:18:44;-0.20;100.00
60473;DHT22;46318;52.716;6.444;2023-12-07T05:21:10;-0.20;100.00
60473;DHT22;46318;52.716;6.444;2023-12-07T05:23:37;-0.20;100.00
60473;DHT22;46318;52.716;6.444;2023-12-07T05:26:02;-0.20;100.00
60473;DHT22;46318;52.716;6.444;2023-12-07T05:28:29;-0.20;100.00
60473;DHT22;46318;52.716;6.444;2023-12-07T05:30:54;-0.20;100.00
60473;DHT22;46318;52.716;6.444;2023-12-07T05:33:22;-0.20;100.00
60473;DHT22;46318;52.716;6.444;2023-12-07T05:35:48;-0.20;100.00
60473;DHT22;46318;52.716;6.444;2023-12-07T05:38:14;-0.20;100.00
60473;DHT22;46318;52.716;6.444;2023-12-07T05:40:40;-0.20;100.00
60473;DHT22;46318;52.716;6.444;2023-12-07T05:43:06;-0.20;100.00
60473;DHT22;46318;52.716;6.444;2023-12-07T05:45:33;-0.20;100.00
60473;DHT22;46318;52.716;6.444;2023-12-07T05:47:59;-0.20;100.00
60473;DHT22;46318;52.716;6.444;2023-12-07T05:50:25;-0.20;100.00
60473;DHT22;46318;52.716;6.444;2023-12-07T05:52:52;-0.20;100.00
60473;DHT22;46318;52.716;6.444;2023-12-07T05:55:18;-0.20;100.00
60473;DHT22;46318;52.716;6.444;2023-12-07T05:57:50;-0.20;100.00
60473;DHT22;46318;52.716;6.444;2023-12-07T06:00:16;-0.20;100.00
60473;DHT22;46318;52.716;6.444;2023-12-07T06:02:42;-0.20;100.00
60473;DHT22;46318;52.716;6.444;2023-12-07T06:05:08;-0.20;100.00
60473;DHT22;46318;52.716;6.444;2023-12-07T06:07:34;-0.20;100.00
60473;DHT22;46318;52.716;6.444;2023-12-07T06:10:00;-0.20;100.00
60473;DHT22;46318;52.716;6.444;2023-12-07T06:12:26;-0.20;100.00
60473;DHT22;46318;52.716;6.444;2023-12-07T06:14:52;-0.20;100.00
60473;DHT22;46318;52.716;6.444;2023-12-07T06:17:20;-0.20;100.00
60473;DHT22;46318;52.716;6.444;2023-12-07T06:19:46;-0.20;100.00
60473;DHT22;46318;52.716;6.444;2023-12-07T06:22:12;-0.20;100.00
60473;DHT22;46318;52.716;6.444;2023-12-07T06:24:39;-0.20;100.00
60473;DHT22;46318;52.716;6.444;2023-12-07T06:27:05;-0.20;100.00
60473;DHT22;46318;52.716;6.444;2023-12-07T06:29:32;-0.20;100.00
60473;DHT22;46318;52.716;6.444;2023-12-07T06:31:58;-0.20;100.00
60473;DHT22;46318;52.716;6.444;2023-12-07T06:34:24;-0.20;100.00
60473;DHT22;46318;52.716;6.444;2023-12-07T06:36:50;-0.20;100.00
60473;DHT22;46318;52.716;6.444;2023-12-07T06:39:15;-0.20;100.00
60473;DHT22;46318;52.716;6.444;2023-12-07T06:41:41;-0.20;100.00
60473;DHT22;46318;52.716;6.444;2023-12-07T06:44:07;-0.20;100.00
60473;DHT22;46318;52.716;6.444;2023-12-07T06:46:34;-0.20;100.00
60473;DHT22;46318;52.716;6.444;2023-12-07T06:48:59;-0.20;100.00
60473;DHT22;46318;52.716;6.444;2023-12-07T06:51:26;-0.20;100.00
60473;DHT22;46318;52.716;6.444;2023-12-07T06:53:54;-0.20;100.00
60473;DHT22;46318;52.716;6.444;2023-12-07T06:56:20;-0.20;100.00
60473;DHT22;46318;52.716;6.444;2023-12-07T06:58:46;-0.20;100.00
60473;DHT22;46318;52.716;6.444;2023-12-07T07:01:13;-0.20;100.00
60473;DHT22;46318;52.716;6.444;2023-12-07T07:03:39;-0.20;100.00
60473;DHT22;46318;52.716;6.444;2023-12-07T07:06:05;-0.30;100.00
60473;DHT22;46318;52.716;6.444;2023-12-07T07:08:31;-0.30;100.00
60473;DHT22;46318;52.716;6.444;2023-12-07T07:10:57;-0.30;100.00
60473;DHT22;46318;52.716;6.444;2023-12-07T07:13:23;-0.30;100.00
60473;DHT22;46318;52.716;6.444;2023-12-07T07:15:49;-0.30;100.00
60473;DHT22;46318;52.716;6.444;2023-12-07T07:18:15;-0.30;100.00
60473;DHT22;46318;52.716;6.444;2023-12-07T07:20:41;-0.30;100.00
60473;DHT22;46318;52.716;6.444;2023-12-07T07:23:07;-0.30;100.00
60473;DHT22;46318;52.716;6.444;2023-12-07T07:25:34;-0.40;100.00
60473;DHT22;46318;52.716;6.444;2023-12-07T07:28:00;-0.30;100.00
60473;DHT22;46318;52.716;6.444;2023-12-07T07:30:26;-0.40;100.00
60473;DHT22;46318;52.716;6.444;2023-12-07T07:32:52;-0.40;100.00
60473;DHT22;46318;52.716;6.444;2023-12-07T07:35:18;-0.30;100.00
60473;DHT22;46318;52.716;6.444;2023-12-07T07:37:44;-0.40;100.00
60473;DHT22;46318;52.716;6.444;2023-12-07T07:40:10;-0.40;100.00
60473;DHT22;46318;52.716;6.444;2023-12-07T07:42:40;-0.40;100.00
60473;DHT22;46318;52.716;6.444;2023-12-07T07:45:07;-0.40;100.00
60473;DHT22;46318;52.716;6.444;2023-12-07T07:47:33;-0.40;100.00
60473;DHT22;46318;52.716;6.444;2023-12-07T07:49:59;-0.40;100.00
60473;DHT22;46318;52.716;6.444;2023-12-07T07:52:34;-0.50;100.00
60473;DHT22;46318;52.716;6.444;2023-12-07T07:55:02;-0.50;100.00
60473;DHT22;46318;52.716;6.444;2023-12-07T07:57:30;-0.50;100.00
60473;DHT22;46318;52.716;6.444;2023-12-07T07:59:57;-0.50;100.00
60473;DHT22;46318;52.716;6.444;2023-12-07T08:02:23;-0.50;100.00
60473;DHT22;46318;52.716;6.444;2023-12-07T08:04:49;-0.50;100.00
60473;DHT22;46318;52.716;6.444;2023-12-07T08:07:17;-0.50;100.00
60473;DHT22;46318;52.716;6.444;2023-12-07T08:09:43;-0.50;100.00
60473;DHT22;46318;52.716;6.444;2023-12-07T08:12:09;-0.50;100.00
60473;DHT22;46318;52.716;6.444;2023-12-07T08:14:36;-0.50;100.00
60473;DHT22;46318;52.716;6.444;2023-12-07T08:17:03;-0.50;100.00
60473;DHT22;46318;52.716;6.444;2023-12-07T08:19:29;-0.50;100.00
60473;DHT22;46318;52.716;6.444;2023-12-07T08:21:55;-0.50;100.00
60473;DHT22;46318;52.716;6.444;2023-12-07T08:24:21;-0.50;100.00
60473;DHT22;46318;52.716;6.444;2023-12-07T08:26:47;-0.50;100.00
60473;DHT22;46318;52.716;6.444;2023-12-07T08:29:13;-0.50;100.00
60473;DHT22;46318;52.716;6.444;2023-12-07T08:31:40;-0.50;100.00
60473;DHT22;46318;52.716;6.444;2023-12-07T08:34:06;-0.50;100.00
60473;DHT22;46318;52.716;6.444;2023-12-07T08:36:32;-0.50;100.00
60473;DHT22;46318;52.716;6.444;2023-12-07T08:38:58;-0.50;100.00
60473;DHT22;46318;52.716;6.444;2023-12-07T08:41:24;-0.50;100.00
60473;DHT22;46318;52.716;6.444;2023-12-07T08:43:51;-0.50;100.00
60473;DHT22;46318;52.716;6.444;2023-12-07T08:46:17;-0.50;100.00
60473;DHT22;46318;52.716;6.444;2023-12-07T08:48:43;-0.50;100.00
60473;DHT22;46318;52.716;6.444;2023-12-07T08:51:09;-0.50;100.00
60473;DHT22;46318;52.716;6.444;2023-12-07T08:53:38;-0.50;100.00
60473;DHT22;46318;52.716;6.444;2023-12-07T08:56:04;-0.50;100.00
60473;DHT22;46318;52.716;6.444;2023-12-07T08:58:30;-0.50;100.00
60473;DHT22;46318;52.716;6.444;2023-12-07T09:00:56;-0.50;100.00
60473;DHT22;46318;52.716;6.444;2023-12-07T09:03:22;-0.60;100.00
60473;DHT22;46318;52.716;6.444;2023-12-07T09:05:53;-0.60;100.00
60473;DHT22;46318;52.716;6.444;2023-12-07T09:08:21;-0.60;100.00
60473;DHT22;46318;52.716;6.444;2023-12-07T09:10:47;-0.60;100.00
60473;DHT22;46318;52.716;6.444;2023-12-07T09:13:19;-0.60;100.00
60473;DHT22;46318;52.716;6.444;2023-12-07T09:15:45;-0.60;100.00
60473;DHT22;46318;52.716;6.444;2023-12-07T09:18:11;-0.60;100.00
60473;DHT22;46318;52.716;6.444;2023-12-07T09:20:38;-0.60;100.00
60473;DHT22;46318;52.716;6.444;2023-12-07T09:23:11;-0.60;100.00
60473;DHT22;46318;52.716;6.444;2023-12-07T09:25:39;-0.50;100.00
60473;DHT22;46318;52.716;6.444;2023-12-07T09:28:06;-0.50;100.00
60473;DHT22;46318;52.716;6.444;2023-12-07T09:30:35;-0.50;100.00
60473;DHT22;46318;52.716;6.444;2023-12-07T09:33:01;-0.50;100.00
60473;DHT22;46318;52.716;6.444;2023-12-07T09:35:31;-0.50;100.00
60473;DHT22;46318;52.716;6.444;2023-12-07T09:37:59;-0.50;100.00
60473;DHT22;46318;52.716;6.444;2023-12-07T09:40:25;-0.50;100.00
60473;DHT22;46318;52.716;6.444;2023-12-07T09:42:54;-0.50;100.00
60473;DHT22;46318;52.716;6.444;2023-12-07T09:45:21;-0.50;100.00
60473;DHT22;46318;52.716;6.444;2023-12-07T09:47:50;-0.50;100.00
60473;DHT22;46318;52.716;6.444;2023-12-07T09:50:19;-0.50;100.00
60473;DHT22;46318;52.716;6.444;2023-12-07T09:53:19;-0.50;100.00
60473;DHT22;46318;52.716;6.444;2023-12-07T09:56:06;-0.40;100.00
60473;DHT22;46318;52.716;6.444;2023-12-07T10:03:26;-0.40;100.00
60473;DHT22;46318;52.716;6.444;2023-12-07T10:06:30;-0.40;100.00
60473;DHT22;46318;52.716;6.444;2023-12-07T10:14:31;-0.40;100.00
60473;DHT22;46318;52.716;6.444;2023-12-07T10:21:39;-0.40;100.00
60473;DHT22;46318;52.716;6.444;2023-12-07T10:25:06;-0.40;100.00
60473;DHT22;46318;52.716;6.444;2023-12-07T10:28:16;-0.30;100.00
60473;DHT22;46318;52.716;6.444;2023-12-07T10:31:18;-0.30;100.00
60473;DHT22;46318;52.716;6.444;2023-12-07T10:34:33;-0.30;100.00
60473;DHT22;46318;52.716;6.444;2023-12-07T10:37:33;-0.30;100.00
60473;DHT22;46318;52.716;6.444;2023-12-07T10:40:11;-0.30;100.00
60473;DHT22;46318;52.716;6.444;2023-12-07T10:43:19;-0.30;100.00
60473;DHT22;46318;52.716;6.444;2023-12-07T10:46:27;-0.20;100.00
60473;DHT22;46318;52.716;6.444;2023-12-07T10:49:49;-0.20;100.00
60473;DHT22;46318;52.716;6.444;2023-12-07T10:59:53;-0.20;100.00
60473;DHT22;46318;52.716;6.444;2023-12-07T11:03:41;-0.20;100.00
60473;DHT22;46318;52.716;6.444;2023-12-07T11:06:29;-0.20;100.00
60473;DHT22;46318;52.716;6.444;2023-12-07T11:09:44;-0.10;100.00
60473;DHT22;46318;52.716;6.444;2023-12-07T11:16:50;-0.10;100.00
60473;DHT22;46318;52.716;6.444;2023-12-07T11:19:49;-0.10;100.00
60473;DHT22;46318;52.716;6.444;2023-12-07T11:23:10;-0.10;100.00
60473;DHT22;46318;52.716;6.444;2023-12-07T11:32:20;-0.10;100.00
60473;DHT22;46318;52.716;6.444;2023-12-07T11:35:13;0.00;100.00
60473;DHT22;46318;52.716;6.444;2023-12-07T11:38:09;0.00;100.00
60473;DHT22;46318;52.716;6.444;2023-12-07T11:40:53;0.00;100.00
60473;DHT22;46318;52.716;6.444;2023-12-07T11:43:57;0.00;100.00
60473;DHT22;46318;52.716;6.444;2023-12-07T11:47:08;0.00;100.00
60473;DHT22;46318;52.716;6.444;2023-12-07T11:50:08;0.00;100.00
60473;DHT22;46318;52.716;6.444;2023-12-07T11:52:49;0.00;100.00
60473;DHT22;46318;52.716;6.444;2023-12-07T11:56:05;0.00;100.00
60473;DHT22;46318;52.716;6.444;2023-12-07T12:01:48;0.00;100.00
60473;DHT22;46318;52.716;6.444;2023-12-07T12:04:30;0.00;100.00
60473;DHT22;46318;52.716;6.444;2023-12-07T12:07:24;0.00;100.00
60473;DHT22;46318;52.716;6.444;2023-12-07T12:09:52;0.00;100.00
60473;DHT22;46318;52.716;6.444;2023-12-07T12:12:18;0.10;100.00
60473;DHT22;46318;52.716;6.444;2023-12-07T12:14:44;0.10;100.00
60473;DHT22;46318;52.716;6.444;2023-12-07T12:17:23;0.10;100.00
60473;DHT22;46318;52.716;6.444;2023-12-07T12:19:55;0.10;100.00
60473;DHT22;46318;52.716;6.444;2023-12-07T12:26:06;0.10;100.00
60473;DHT22;46318;52.716;6.444;2023-12-07T12:32:45;0.20;100.00
60473;DHT22;46318;52.716;6.444;2023-12-07T12:51:00;0.20;100.00
60473;DHT22;46318;52.716;6.444;2023-12-07T12:57:11;0.20;100.00
60473;DHT22;46318;52.716;6.444;2023-12-07T12:59:50;0.30;100.00
60473;DHT22;46318;52.716;6.444;2023-12-07T13:02:20;0.30;100.00
60473;DHT22;46318;52.716;6.444;2023-12-07T13:04:58;0.30;100.00
60473;DHT22;46318;52.716;6.444;2023-12-07T13:07:47;0.30;100.00
60473;DHT22;46318;52.716;6.444;2023-12-07T13:10:22;0.30;100.00
60473;DHT22;46318;52.716;6.444;2023-12-07T13:13:05;0.30;100.00
60473;DHT22;46318;52.716;6.444;2023-12-07T13:15:36;0.30;100.00
60473;DHT22;46318;52.716;6.444;2023-12-07T13:18:06;0.40;100.00
60473;DHT22;46318;52.716;6.444;2023-12-07T13:20:50;0.40;100.00
60473;DHT22;46318;52.716;6.444;2023-12-07T13:23:43;0.40;100.00
60473;DHT22;46318;52.716;6.444;2023-12-07T13:27:04;0.40;100.00
60473;DHT22;46318;52.716;6.444;2023-12-07T13:30:05;0.40;100.00
60473;DHT22;46318;52.716;6.444;2023-12-07T13:33:10;0.40;100.00
60473;DHT22;46318;52.716;6.444;2023-12-07T13:36:20;0.40;100.00
60473;DHT22;46318;52.716;6.444;2023-12-07T13:38:55;0.40;100.00
60473;DHT22;46318;52.716;6.444;2023-12-07T13:41:29;0.50;100.00
60473;DHT22;46318;52.716;6.444;2023-12-07T13:44:24;0.50;100.00
60473;DHT22;46318;52.716;6.444;2023-12-07T13:47:37;0.50;100.00
60473;DHT22;46318;52.716;6.444;2023-12-07T13:53:53;0.60;100.00
60473;DHT22;46318;52.716;6.444;2023-12-07T13:57:23;0.60;100.00
60473;DHT22;46318;52.716;6.444;2023-12-07T14:00:05;0.60;100.00
60473;DHT22;46318;52.716;6.444;2023-12-07T14:02:59;0.60;100.00
60473;DHT22;46318;52.716;6.444;2023-12-07T14:06:01;0.70;100.00
60473;DHT22;46318;52.716;6.444;2023-12-07T14:08:44;0.70;100.00
60473;DHT22;46318;52.716;6.444;2023-12-07T14:11:33;0.70;100.00
60473;DHT22;46318;52.716;6.444;2023-12-07T14:14:40;0.70;100.00
60473;DHT22;46318;52.716;6.444;2023-12-07T14:17:40;0.80;100.00
60473;DHT22;46318;52.716;6.444;2023-12-07T14:20:15;0.70;100.00
60473;DHT22;46318;52.716;6.444;2023-12-07T14:22:55;0.80;100.00
60473;DHT22;46318;52.716;6.444;2023-12-07T14:25:45;0.80;100.00
60473;DHT22;46318;52.716;6.444;2023-12-07T14:28:25;0.80;100.00
60473;DHT22;46318;52.716;6.444;2023-12-07T14:31:17;0.80;100.00
60473;DHT22;46318;52.716;6.444;2023-12-07T14:33:56;0.80;100.00
60473;DHT22;46318;52.716;6.444;2023-12-07T14:36:33;0.90;100.00
60473;DHT22;46318;52.716;6.444;2023-12-07T14:39:32;0.90;100.00
60473;DHT22;46318;52.716;6.444;2023-12-07T14:42:04;0.90;100.00
60473;DHT22;46318;52.716;6.444;2023-12-07T14:51:49;1.00;100.00
60473;DHT22;46318;52.716;6.444;2023-12-07T14:54:30;1.00;100.00
60473;DHT22;46318;52.716;6.444;2023-12-07T14:57:28;1.00;100.00
60473;DHT22;46318;52.716;6.444;2023-12-07T15:00:24;1.00;100.00
60473;DHT22;46318;52.716;6.444;2023-12-07T15:03:10;1.00;100.00
60473;DHT22;46318;52.716;6.444;2023-12-07T15:06:09;1.00;100.00
60473;DHT22;46318;52.716;6.444;2023-12-07T15:09:30;1.10;100.00
60473;DHT22;46318;52.716;6.444;2023-12-07T15:18:34;1.10;100.00
60473;DHT22;46318;52.716;6.444;2023-12-07T15:29:26;1.10;100.00
60473;DHT22;46318;52.716;6.444;2023-12-07T15:32:56;1.10;100.00
60473;DHT22;46318;52.716;6.444;2023-12-07T15:36:02;1.10;100.00
60473;DHT22;46318;52.716;6.444;2023-12-07T15:38:37;1.10;100.00
60473;DHT22;46318;52.716;6.444;2023-12-07T15:41:35;1.10;100.00
60473;DHT22;46318;52.716;6.444;2023-12-07T15:48:07;1.10;100.00
60473;DHT22;46318;52.716;6.444;2023-12-07T15:50:58;1.10;100.00
60473;DHT22;46318;52.716;6.444;2023-12-07T15:53:59;1.10;100.00
60473;DHT22;46318;52.716;6.444;2023-12-07T15:57:02;1.10;100.00
60473;DHT22;46318;52.716;6.444;2023-12-07T15:59:47;1.10;100.00
60473;DHT22;46318;52.716;6.444;2023-12-07T16:02:49;1.10;100.00
60473;DHT22;46318;52.716;6.444;2023-12-07T16:05:30;1.10;100.00
60473;DHT22;46318;52.716;6.444;2023-12-07T16:08:05;1.20;100.00
60473;DHT22;46318;52.716;6.444;2023-12-07T16:13:36;1.20;100.00
60473;DHT22;46318;52.716;6.444;2023-12-07T16:16:08;1.20;100.00
60473;DHT22;46318;52.716;6.444;2023-12-07T16:18:46;1.20;100.00
60473;DHT22;46318;52.716;6.444;2023-12-07T16:21:34;1.20;100.00
60473;DHT22;46318;52.716;6.444;2023-12-07T16:24:06;1.20;100.00
60473;DHT22;46318;52.716;6.444;2023-12-07T16:26:41;1.20;100.00
60473;DHT22;46318;52.716;6.444;2023-12-07T16:29:21;1.20;100.00
60473;DHT22;46318;52.716;6.444;2023-12-07T16:32:33;1.20;100.00
60473;DHT22;46318;52.716;6.444;2023-12-07T16:35:04;1.20;100.00
60473;DHT22;46318;52.716;6.444;2023-12-07T16:37:39;1.20;100.00
60473;DHT22;46318;52.716;6.444;2023-12-07T16:40:21;1.20;100.00
60473;DHT22;46318;52.716;6.444;2023-12-07T16:43:04;1.20;100.00
60473;DHT22;46318;52.716;6.444;2023-12-07T16:45:47;1.20;100.00
60473;DHT22;46318;52.716;6.444;2023-12-07T16:48:18;1.20;100.00
60473;DHT22;46318;52.716;6.444;2023-12-07T16:54:07;1.20;100.00
60473;DHT22;46318;52.716;6.444;2023-12-07T16:57:49;1.20;100.00
60473;DHT22;46318;52.716;6.444;2023-12-07T17:00:18;1.20;100.00
60473;DHT22;46318;52.716;6.444;2023-12-07T17:02:48;1.20;100.00
60473;DHT22;46318;52.716;6.444;2023-12-07T17:05:20;1.20;100.00
60473;DHT22;46318;52.716;6.444;2023-12-07T17:11:44;1.20;100.00
60473;DHT22;46318;52.716;6.444;2023-12-07T17:18:11;1.20;100.00
60473;DHT22;46318;52.716;6.444;2023-12-07T17:21:27;1.20;100.00
60473;DHT22;46318;52.716;6.444;2023-12-07T17:25:34;1.20;100.00
60473;DHT22;46318;52.716;6.444;2023-12-07T17:28:27;1.20;100.00
60473;DHT22;46318;52.716;6.444;2023-12-07T17:31:37;1.20;100.00
60473;DHT22;46318;52.716;6.444;2023-12-07T17:38:18;1.10;100.00
60473;DHT22;46318;52.716;6.444;2023-12-07T17:41:24;1.10;100.00
60473;DHT22;46318;52.716;6.444;2023-12-07T17:44:08;1.10;100.00
60473;DHT22;46318;52.716;6.444;2023-12-07T17:47:07;1.10;100.00
60473;DHT22;46318;52.716;6.444;2023-12-07T17:50:05;1.10;100.00
60473;DHT22;46318;52.716;6.444;2023-12-07T17:52:42;1.00;100.00
60473;DHT22;46318;52.716;6.444;2023-12-07T17:55:35;1.00;100.00
60473;DHT22;46318;52.716;6.444;2023-12-07T17:58:15;1.00;100.00
60473;DHT22;46318;52.716;6.444;2023-12-07T18:00:55;1.00;100.00
60473;DHT22;46318;52.716;6.444;2023-12-07T18:03:38;1.00;100.00